Time;durP1;ratioP1;P1;durP2;ratioP2;P2;SDS_P1;SDS_P2;PMS_P1;PMS_P2;Temp;Humidity;BMP_temperature;BMP_pressure;BME280_temperature;BME280_humidity;BME280_pressure;Samples;Min_cycle;Max_cycle;Signal;HPM_P1;HPM_P2
2023/09/21 00:01:38;;;;;;;8.70;7.70;;;;;;;14.03;100.00;98668.14;110235;1246;59766;-70
2023/09/21 00:04:05;;;;;;;9.00;7.40;;;;;;;14.02;100.00;98662.52;110258;1247;65419;-71
2023/09/21 00:06:32;;;;;;;8.40;7.30;;;;;;;14.02;100.00;98663.39;110295;1246;60246;-71
2023/09/21 00:08:59;;;;;;;9.30;7.90;;;;;;;14.04;100.00;98663.73;110195;1247;63732;-71
2023/09/21 00:11:26;;;;;;;8.10;7.30;;;;;;;14.04;100.00;98659.48;109485;1247;59786;-71
2023/09/21 00:13:52;;;;;;;10.20;8.80;;;;;;;14.04;100.00;98660.14;110221;1245;59953;-70
2023/09/21 00:16:20;;;;;;;8.90;7.40;;;;;;;14.02;100.00;98653.15;110228;1247;66524;-70
2023/09/21 00:18:46;;;;;;;8.60;7.70;;;;;;;14.03;100.00;98652.23;110256;1247;60001;-71
2023/09/21 00:21:13;;;;;;;9.60;8.20;;;;;;;14.01;100.00;98658.59;110224;1246;64089;-71
2023/09/21 00:23:40;;;;;;;8.80;7.90;;;;;;;13.99;100.00;98651.67;110241;1247;59810;-71
2023/09/21 00:26:07;;;;;;;10.20;8.20;;;;;;;13.97;100.00;98650.61;110237;1246;59807;-71
2023/09/21 00:28:35;;;;;;;8.70;7.90;;;;;;;13.95;100.00;98648.95;110214;1247;66801;-71
2023/09/21 00:31:02;;;;;;;10.70;8.80;;;;;;;13.93;100.00;98647.77;109673;1247;60031;-70
2023/09/21 00:33:32;;;;;;;9.80;8.40;;;;;;;13.90;100.00;98640.31;109584;1246;62541;-71
2023/09/21 00:35:59;;;;;;;8.70;7.90;;;;;;;13.89;100.00;98645.02;110216;1245;59753;-71
2023/09/21 00:38:26;;;;;;;12.50;8.50;;;;;;;13.88;100.00;98646.05;110243;1247;59800;-71
2023/09/21 00:40:58;;;;;;;9.10;7.80;;;;;;;13.87;100.00;98641.88;110229;1248;66908;-71
2023/09/21 00:43:25;;;;;;;8.70;7.80;;;;;;;13.85;100.00;98641.45;110295;1247;59789;-71
2023/09/21 00:45:54;;;;;;;10.30;8.20;;;;;;;13.86;100.00;98637.98;110205;1247;64258;-71
2023/09/21 00:48:25;;;;;;;9.50;8.50;;;;;;;13.86;100.00;98632.98;110214;1246;59803;-71
2023/09/21 00:50:54;;;;;;;10.20;7.70;;;;;;;13.85;100.00;98632.70;110242;1247;59750;-71
2023/09/21 00:53:22;;;;;;;8.70;7.80;;;;;;;13.82;100.00;98635.23;110221;1247;65636;-71
2023/09/21 00:55:55;;;;;;;9.00;7.50;;;;;;;13.82;100.00;98632.23;110221;1247;60321;-71
2023/09/21 00:58:23;;;;;;;8.70;7.60;;;;;;;13.80;100.00;98633.29;109677;1246;64037;-71
2023/09/21 01:00:50;;;;;;;10.20;8.10;;;;;;;13.78;100.00;98633.98;109712;1246;59793;-71
2023/09/21 01:03:17;;;;;;;8.20;7.10;;;;;;;13.75;100.00;98628.06;110243;1246;59877;-71
2023/09/21 01:05:45;;;;;;;7.80;7.10;;;;;;;13.74;100.00;98627.73;109687;1247;66540;-71
2023/09/21 01:08:15;;;;;;;7.70;6.90;;;;;;;13.73;100.00;98624.59;110227;1247;59903;-72
2023/09/21 01:10:44;;;;;;;8.00;7.20;;;;;;;13.73;100.00;98618.42;110251;1247;63853;-71
2023/09/21 01:13:12;;;;;;;12.60;7.10;;;;;;;13.74;100.00;98617.92;110231;1247;59746;-71
2023/09/21 01:15:58;;;;;;;7.30;6.60;;;;;;;13.76;100.00;98612.42;109657;1254;59872;-71
2023/09/21 01:18:24;;;;;;;9.60;7.40;;;;;;;13.78;100.00;98608.66;110264;1247;65620;-71
2023/09/21 01:20:55;;;;;;;8.80;7.40;;;;;;;13.80;100.00;98606.70;110267;1247;60366;-71
2023/09/21 01:23:31;;;;;;;9.40;7.20;;;;;;;13.81;100.00;98606.76;110222;1246;64170;-71
2023/09/21 01:26:00;;;;;;;8.90;7.60;;;;;;;13.82;100.00;98602.77;110206;1246;59748;-71
2023/09/21 01:28:29;;;;;;;8.30;7.40;;;;;;;13.83;100.00;98603.55;110222;1247;59872;-72
2023/09/21 01:30:56;;;;;;;8.90;7.10;;;;;;;13.84;100.00;98607.07;110204;1247;66881;-71
2023/09/21 01:33:24;;;;;;;8.30;7.40;;;;;;;13.83;100.00;98601.79;110212;1248;59778;-71
2023/09/21 01:35:51;;;;;;;9.00;7.30;;;;;;;13.83;100.00;98602.18;110207;1247;64055;-71
2023/09/21 01:38:19;;;;;;;7.90;7.20;;;;;;;13.82;100.00;98597.79;110191;1246;59745;-71
2023/09/21 01:40:48;;;;;;;8.50;7.60;;;;;;;13.83;100.00;98596.79;109697;1247;59835;-72
2023/09/21 01:43:15;;;;;;;8.80;7.60;;;;;;;13.82;100.00;98595.27;110231;1246;66983;-71
2023/09/21 01:45:44;;;;;;;9.80;7.70;;;;;;;13.81;100.00;98590.86;110275;1245;60076;-71
2023/09/21 01:48:15;;;;;;;8.70;7.90;;;;;;;13.81;100.00;98592.49;109930;1251;62839;-71
2023/09/21 01:50:45;;;;;;;11.40;7.50;;;;;;;13.79;100.00;98593.52;110232;1248;59992;-71
2023/09/21 01:53:13;;;;;;;9.40;7.90;;;;;;;13.78;100.00;98590.30;110249;1247;59803;-71
2023/09/21 01:55:40;;;;;;;9.00;7.80;;;;;;;13.77;100.00;98588.53;110197;1247;66842;-71
2023/09/21 01:58:09;;;;;;;9.10;7.70;;;;;;;13.75;100.00;98586.63;110225;1247;60222;-71
2023/09/21 02:00:40;;;;;;;10.50;7.90;;;;;;;13.71;100.00;98584.27;110254;1246;64142;-71
2023/09/21 02:03:12;;;;;;;9.50;8.50;;;;;;;13.68;100.00;98585.93;110240;1246;59744;-71
2023/09/21 02:05:40;;;;;;;8.80;7.90;;;;;;;13.65;100.00;98578.89;110250;1248;59844;-71
2023/09/21 02:08:11;;;;;;;9.20;8.30;;;;;;;13.61;100.00;98574.38;110255;1248;66724;-71
2023/09/21 02:10:40;;;;;;;9.00;7.80;;;;;;;13.60;100.00;98575.39;109724;1247;60253;-71
2023/09/21 02:13:07;;;;;;;9.10;8.10;;;;;;;13.59;100.00;98574.27;110261;1247;64022;-71
2023/09/21 02:15:37;;;;;;;8.70;7.80;;;;;;;13.56;100.00;98572.55;110252;1247;59956;-71
2023/09/21 02:18:04;;;;;;;;;;;;;;;13.53;100.00;98565.11;110307;1247;59906;-71
2023/09/21 02:20:32;;;;;;;9.20;7.60;;;;;;;13.52;100.00;98567.16;110255;1246;65670;-71
2023/09/21 02:23:00;;;;;;;8.80;7.90;;;;;;;13.51;100.00;98567.10;110210;1250;59807;-71
2023/09/21 02:25:31;;;;;;;11.30;8.50;;;;;;;13.49;100.00;98563.52;110222;1247;64190;-71
2023/09/21 02:28:09;;;;;;;9.80;8.80;;;;;;;13.48;100.00;98560.92;110246;1246;60062;-72
2023/09/21 02:30:39;;;;;;;9.80;8.00;;;;;;;13.47;100.00;98557.30;110266;1247;59795;-73
2023/09/21 02:33:07;;;;;;;11.40;8.20;;;;;;;13.47;100.00;98555.52;110244;1248;66924;-71
2023/09/21 02:35:34;;;;;;;9.70;8.70;;;;;;;13.47;100.00;98558.52;110214;1246;60338;-72
2023/09/21 02:38:04;;;;;;;9.50;8.50;;;;;;;13.47;100.00;98560.69;110187;1247;64425;-71
2023/09/21 02:40:31;;;;;;;9.90;8.80;;;;;;;13.45;100.00;98558.88;110173;1247;59718;-71
2023/09/21 02:42:57;;;;;;;9.50;8.50;;;;;;;13.42;100.00;98560.55;110213;1247;59864;-72
2023/09/21 02:45:25;;;;;;;10.90;8.10;;;;;;;13.40;100.00;98555.73;110260;1246;59842;-71
2023/09/21 02:47:54;;;;;;;10.00;8.00;;;;;;;13.37;100.00;98558.25;110232;1248;59828;-71
2023/09/21 02:50:22;;;;;;;10.60;9.00;;;;;;;13.35;100.00;98556.50;110243;1248;64146;-71
2023/09/21 02:53:01;;;;;;;12.20;8.90;;;;;;;13.35;100.00;98552.55;110230;1246;59806;-71
2023/09/21 02:55:29;;;;;;;9.30;8.20;;;;;;;13.35;100.00;98555.19;110245;1248;59784;-71
2023/09/21 02:58:04;;;;;;;10.30;8.70;;;;;;;13.35;100.00;98553.27;110207;1246;65637;-72
2023/09/21 03:00:39;;;;;;;13.40;9.10;;;;;;;13.34;100.00;98547.25;110222;1247;59828;-71
2023/09/21 03:03:07;;;;;;;11.70;9.30;;;;;;;13.35;100.00;98543.66;109892;1251;63788;-72
2023/09/21 03:05:34;;;;;;;18.20;16.40;;;;;;;13.35;100.00;98543.31;110205;1246;59863;-71
2023/09/21 03:08:05;;;;;;;13.70;9.60;;;;;;;13.35;100.00;98540.39;110277;1248;59644;-71
2023/09/21 03:10:33;;;;;;;11.70;10.50;;;;;;;13.37;100.00;98540.95;110221;1247;66130;-71
2023/09/21 03:13:00;;;;;;;13.30;10.70;;;;;;;13.37;100.00;98541.17;110254;1247;60311;-71
2023/09/21 03:15:26;;;;;;;15.00;10.10;;;;;;;13.35;100.00;98536.71;110206;1246;63824;-71
2023/09/21 03:17:53;;;;;;;16.70;8.80;;;;;;;13.31;100.00;98532.92;109791;1247;60204;-71
2023/09/21 03:20:30;;;;;;;9.40;8.50;;;;;;;13.28;100.00;98531.91;109587;1246;59798;-71
2023/09/21 03:23:05;;;;;;;10.60;9.40;;;;;;;13.26;100.00;98528.16;110256;1245;66889;-71
2023/09/21 03:25:33;;;;;;;11.30;8.60;;;;;;;13.24;100.00;98524.59;110251;1247;60196;-71
2023/09/21 03:28:08;;;;;;;9.70;8.80;;;;;;;13.22;100.00;98526.48;110251;1246;63860;-71
2023/09/21 03:30:34;;;;;;;10.20;9.20;;;;;;;13.21;100.00;98531.23;110219;1246;59843;-71
2023/09/21 03:33:01;;;;;;;10.30;7.80;;;;;;;13.18;100.00;98528.61;110207;1246;59814;-71
2023/09/21 03:35:28;;;;;;;10.40;8.00;;;;;;;13.18;100.00;98522.01;109790;1248;65651;-71
2023/09/21 03:37:54;;;;;;;11.60;10.40;;;;;;;13.19;100.00;98520.89;110246;1246;60203;-71
2023/09/21 03:40:21;;;;;;;10.50;8.70;;;;;;;13.20;100.00;98519.77;110207;1245;64095;-71
2023/09/21 03:42:47;;;;;;;11.50;9.20;;;;;;;13.20;100.00;98513.48;110224;1247;59747;-72
2023/09/21 03:45:16;;;;;;;14.50;9.10;;;;;;;13.19;100.00;98515.88;110231;1248;59670;-72
2023/09/21 03:47:43;;;;;;;11.70;9.70;;;;;;;13.18;100.00;98518.27;110279;1248;66928;-72
2023/09/21 03:50:14;;;;;;;10.40;9.40;;;;;;;13.18;100.00;98514.04;110250;1247;59825;-72
2023/09/21 03:52:42;;;;;;;18.00;10.60;;;;;;;13.17;100.00;98515.17;110261;1245;65230;-72
2023/09/21 03:55:15;;;;;;;9.90;9.00;;;;;;;13.17;100.00;98507.70;110196;1246;60039;-72
2023/09/21 03:57:46;;;;;;;13.40;9.70;;;;;;;13.17;100.00;98507.98;110250;1246;60090;-72
2023/09/21 04:00:29;;;;;;;14.10;10.00;;;;;;;13.17;100.00;98511.59;110265;1247;67069;-72
2023/09/21 04:02:58;;;;;;;12.30;10.10;;;;;;;13.17;100.00;98508.55;110246;1247;59788;-69
2023/09/21 04:05:31;;;;;;;11.60;10.40;;;;;;;13.20;100.00;98507.83;110237;1247;63887;-71
2023/09/21 04:07:58;;;;;;;13.10;10.70;;;;;;;13.21;100.00;98505.05;110235;1246;59840;-71
2023/09/21 04:10:25;;;;;;;11.70;9.80;;;;;;;13.21;100.00;98503.21;110233;1247;59930;-71
2023/09/21 04:12:55;;;;;;;10.90;11.50;;;;;;;13.22;100.00;98504.60;110219;1247;65655;-72
2023/09/21 04:15:27;;;;;;;13.60;9.80;;;;;;;13.22;100.00;98502.27;110276;1245;59842;-72
2023/09/21 04:17:55;;;;;;;12.80;10.90;;;;;;;13.21;100.00;98500.78;110176;1247;64283;-72
2023/09/21 04:20:22;;;;;;;11.30;9.90;;;;;;;13.20;100.00;98501.23;110178;1246;59833;-72
2023/09/21 04:22:49;;;;;;;11.50;10.30;;;;;;;13.19;100.00;98497.31;110234;1246;59661;-71
2023/09/21 04:25:17;;;;;;;13.90;10.50;;;;;;;13.20;100.00;98501.55;110211;1246;65516;-72
2023/09/21 04:27:45;;;;;;;13.80;10.30;;;;;;;13.21;100.00;98498.09;110241;1246;68762;-72
2023/09/21 04:30:16;;;;;;;13.40;10.30;;;;;;;13.21;100.00;98495.41;110237;1247;64056;-71
2023/09/21 04:32:47;;;;;;;10.40;9.10;;;;;;;13.22;100.00;98499.59;110190;1247;59746;-71
2023/09/21 04:35:18;;;;;;;13.10;9.50;;;;;;;13.23;100.00;98500.92;110229;1246;59784;-70
2023/09/21 04:37:46;;;;;;;11.40;9.00;;;;;;;13.25;100.00;98496.27;110219;1246;66529;-71
2023/09/21 04:40:13;;;;;;;11.80;9.40;;;;;;;13.28;100.00;98495.02;110225;1247;60191;-71
2023/09/21 04:42:42;;;;;;;13.60;9.10;;;;;;;13.32;100.00;98493.06;110135;1246;63779;-70
2023/09/21 04:45:11;;;;;;;12.40;9.90;;;;;;;13.36;100.00;98493.73;110158;1247;59845;-71
2023/09/21 04:47:39;;;;;;;9.60;8.70;;;;;;;13.41;100.00;98492.77;110261;1246;60085;-71
2023/09/21 04:50:06;;;;;;;14.40;9.30;;;;;;;13.49;100.00;98495.52;110304;1246;66920;-71
2023/09/21 04:52:34;;;;;;;10.40;8.80;;;;;;;13.72;100.00;98500.48;109672;1247;60108;-71
2023/09/21 04:55:08;;;;;;;9.60;8.20;;;;;;;14.05;100.00;98496.27;110182;1246;62843;-70
2023/09/21 04:57:35;;;;;;;12.70;8.70;;;;;;;14.36;100.00;98494.02;109659;1247;60328;-70
2023/09/21 05:00:07;;;;;;;9.00;7.40;;;;;;;14.65;100.00;98487.99;109647;1247;59829;-70
2023/09/21 05:02:34;;;;;;;8.90;7.30;;;;;;;14.92;100.00;98491.08;109631;1245;65298;-71
2023/09/21 05:05:00;;;;;;;8.80;6.90;;;;;;;15.15;100.00;98490.70;110225;1247;60434;-71
2023/09/21 05:07:30;;;;;;;7.90;6.90;;;;;;;15.37;100.00;98488.09;110198;1246;62507;-71
2023/09/21 05:09:57;;;;;;;9.90;7.10;;;;;;;15.56;100.00;98486.98;110214;1246;59793;-71
2023/09/21 05:12:24;;;;;;;9.20;7.30;;;;;;;15.76;100.00;98487.27;110224;1246;59931;-72
2023/09/21 05:14:51;;;;;;;7.80;7.00;;;;;;;15.94;100.00;98491.23;110230;1247;67125;-71
2023/09/21 05:17:18;;;;;;;10.30;6.50;;;;;;;16.09;100.00;98489.30;110244;1247;60211;-71
2023/09/21 05:19:44;;;;;;;8.00;5.60;;;;;;;16.30;100.00;98485.41;109759;1248;64019;-71
2023/09/21 05:22:11;;;;;;;10.00;6.70;;;;;;;16.51;100.00;98489.99;110227;1246;60180;-71
2023/09/21 05:24:38;;;;;;;11.20;6.30;;;;;;;16.68;100.00;98486.65;110258;1246;59867;-72
2023/09/21 05:27:04;;;;;;;8.80;5.80;;;;;;;16.80;100.00;98486.92;110238;1246;67945;-71
2023/09/21 05:29:31;;;;;;;6.00;5.50;;;;;;;16.95;100.00;98482.35;110277;1247;59836;-72
2023/09/21 05:31:57;;;;;;;8.50;6.30;;;;;;;17.07;100.00;98484.16;110218;1247;62530;-71
2023/09/21 05:34:28;;;;;;;8.10;6.10;;;;;;;17.16;100.00;98487.89;110186;1247;60040;-71
2023/09/21 05:36:54;;;;;;;;;;;;;;;17.30;100.00;98489.02;110214;1246;59753;-71
2023/09/21 05:39:21;;;;;;;8.90;5.50;;;;;;;17.44;100.00;98489.16;109881;1247;65555;-70
2023/09/21 05:41:47;;;;;;;6.80;5.50;;;;;;;17.60;100.00;98488.95;109892;1246;59831;-71
2023/09/21 05:44:14;;;;;;;6.40;5.20;;;;;;;17.67;100.00;98489.50;110186;1247;64062;-71
2023/09/21 05:46:41;;;;;;;7.50;5.20;;;;;;;17.45;100.00;98484.79;110213;1247;59829;-71
2023/09/21 05:49:09;;;;;;;8.80;5.30;;;;;;;17.19;100.00;98483.48;110233;1245;59839;-71
2023/09/21 05:51:36;;;;;;;6.50;5.80;;;;;;;17.04;100.00;98482.15;110239;1245;66953;-71
2023/09/21 05:54:03;;;;;;;6.70;5.80;;;;;;;16.89;100.00;98481.55;110242;1247;59770;-71
2023/09/21 05:56:31;;;;;;;9.80;5.50;;;;;;;16.80;100.00;98484.59;110240;1247;62833;-71
2023/09/21 05:59:00;;;;;;;9.80;6.30;;;;;;;16.74;100.00;98486.04;110240;1246;59854;-71
2023/09/21 06:01:32;;;;;;;9.40;5.80;;;;;;;16.68;100.00;98488.42;110217;1246;59759;-71
2023/09/21 06:03:59;;;;;;;8.00;5.90;;;;;;;16.62;100.00;98490.70;110189;1246;66843;-71
2023/09/21 06:06:31;;;;;;;5.40;4.80;;;;;;;16.57;100.00;98484.50;110208;1246;59925;-71
2023/09/21 06:08:57;;;;;;;7.90;5.70;;;;;;;16.55;100.00;98477.25;110209;1245;63722;-71
2023/09/21 06:11:25;;;;;;;10.00;6.00;;;;;;;16.56;100.00;98479.81;110172;1247;60796;-71
2023/09/21 06:13:54;;;;;;;6.70;5.70;;;;;;;16.59;100.00;98482.94;110221;1246;59985;-71
2023/09/21 06:16:22;;;;;;;8.10;6.20;;;;;;;16.58;100.00;98485.75;110189;1247;66548;-71
2023/09/21 06:18:49;;;;;;;6.50;5.80;;;;;;;16.60;100.00;98485.53;110269;1246;59733;-71
2023/09/21 06:21:16;;;;;;;8.60;5.60;;;;;;;16.64;100.00;98483.59;110223;1246;63018;-71
2023/09/21 06:23:44;;;;;;;7.50;6.20;;;;;;;16.70;100.00;98484.85;110205;1246;59893;-71
2023/09/21 06:26:14;;;;;;;7.90;6.60;;;;;;;16.74;100.00;98479.04;110240;1246;59775;-71
2023/09/21 06:28:47;;;;;;;7.20;5.50;;;;;;;16.78;100.00;98471.48;110245;1247;66913;-71
2023/09/21 06:31:15;;;;;;;8.30;5.80;;;;;;;16.86;100.00;98475.91;110248;1247;59906;-71
2023/09/21 06:33:41;;;;;;;7.90;5.70;;;;;;;16.93;100.00;98473.45;110208;1246;64037;-71
2023/09/21 06:36:18;;;;;;;6.10;5.50;;;;;;;17.00;100.00;98478.21;110203;1247;59897;-71
2023/09/21 06:38:45;;;;;;;5.90;5.30;;;;;;;17.07;100.00;98480.39;110245;1247;59769;-70
2023/09/21 06:41:11;;;;;;;6.40;4.80;;;;;;;17.15;100.00;98475.86;110227;1247;66815;-71
2023/09/21 06:43:40;;;;;;;10.60;5.50;;;;;;;17.23;100.00;98475.01;110238;1246;60116;-71
2023/09/21 06:46:07;;;;;;;6.80;4.90;;;;;;;17.32;100.00;98470.87;110218;1247;62816;-71
2023/09/21 06:48:33;;;;;;;7.60;5.00;;;;;;;17.41;100.00;98469.38;110220;1246;59755;-72
2023/09/21 06:51:00;;;;;;;6.10;4.30;;;;;;;17.49;100.00;98471.92;110068;1247;180082;-71
2023/09/21 06:53:29;;;;;;;6.50;5.00;;;;;;;17.59;100.00;98470.36;110223;1246;66876;-71
2023/09/21 06:55:56;;;;;;;8.40;5.00;;;;;;;17.70;100.00;98472.10;110218;1245;59852;-71
2023/09/21 06:58:22;;;;;;;7.20;4.70;;;;;;;17.80;100.00;98467.65;110245;1246;63754;-71
2023/09/21 07:00:49;;;;;;;4.70;4.20;;;;;;;17.90;100.00;98466.25;109628;1247;59838;-72
2023/09/21 07:03:17;;;;;;;5.30;4.10;;;;;;;18.00;100.00;98467.88;110242;1246;59751;-72
2023/09/21 07:05:48;;;;;;;8.40;4.30;;;;;;;18.08;100.00;98468.15;109689;1246;66854;-71
2023/09/21 07:08:15;;;;;;;4.50;4.00;;;;;;;18.15;100.00;98467.80;110261;1246;60258;-71
2023/09/21 07:10:43;;;;;;;4.70;4.00;;;;;;;18.24;100.00;98464.42;110187;1246;64072;-71
2023/09/21 07:13:10;;;;;;;4.20;3.90;;;;;;;18.31;100.00;98465.11;110182;1245;59756;-72
2023/09/21 07:15:38;;;;;;;4.30;3.70;;;;;;;18.39;100.00;98462.30;110215;1245;59813;-71
2023/09/21 07:18:05;;;;;;;5.00;4.00;;;;;;;18.48;100.00;98461.88;110241;1246;66897;-71
2023/09/21 07:20:33;;;;;;;5.30;3.40;;;;;;;18.59;100.00;98457.44;110228;1247;60174;-71
2023/09/21 07:23:00;;;;;;;4.90;3.30;;;;;;;18.71;100.00;98462.61;110218;1246;62869;-71
2023/09/21 07:25:28;;;;;;;5.20;3.70;;;;;;;18.82;100.00;98458.03;110201;1246;60181;-71
2023/09/21 07:27:55;;;;;;;5.90;3.40;;;;;;;18.91;100.00;98451.25;110177;1246;59684;-71
2023/09/21 07:30:22;;;;;;;5.90;3.40;;;;;;;19.02;100.00;98452.41;110179;1246;66868;-71
2023/09/21 07:32:49;;;;;;;4.10;2.90;;;;;;;19.12;100.00;98454.03;109763;1249;59886;-72
2023/09/21 07:35:15;;;;;;;4.70;2.80;;;;;;;19.21;100.00;98454.40;110215;1247;62968;-71
2023/09/21 07:37:46;;;;;;;4.00;3.10;;;;;;;19.33;100.00;98451.88;110190;1245;60189;-71
2023/09/21 07:40:13;;;;;;;5.10;3.20;;;;;;;19.46;100.00;98452.11;110263;1246;60724;-71
2023/09/21 07:42:42;;;;;;;4.70;2.50;;;;;;;19.57;100.00;98457.81;109674;1247;67028;-71
2023/09/21 07:45:10;;;;;;;2.80;2.60;;;;;;;19.64;100.00;98456.21;110216;1247;60195;-71
2023/09/21 07:47:40;;;;;;;3.90;2.40;;;;;;;19.71;100.00;98454.41;109633;1246;62861;-71
2023/09/21 07:50:07;;;;;;;3.20;2.80;;;;;;;19.77;100.00;98453.34;110222;1246;60090;-72
2023/09/21 07:52:35;;;;;;;5.90;3.20;;;;;;;19.87;100.00;98454.08;110212;1246;59771;-72
2023/09/21 07:55:04;;;;;;;3.70;2.70;;;;;;;19.99;100.00;98450.89;110207;1247;65302;-71
2023/09/21 07:57:37;;;;;;;3.90;3.00;;;;;;;20.12;100.00;98446.83;110213;1245;60108;-71
2023/09/21 08:00:05;;;;;;;4.00;3.00;;;;;;;20.25;100.00;98446.09;110227;1245;62813;-71
2023/09/21 08:02:31;;;;;;;6.10;2.60;;;;;;;20.38;100.00;98441.17;109647;1246;59848;-71
2023/09/21 08:04:58;;;;;;;3.80;2.90;;;;;;;20.52;100.00;98437.37;110294;1247;59762;-71
2023/09/21 08:07:26;;;;;;;5.10;2.60;;;;;;;20.62;100.00;98433.08;109772;1246;59771;-70
2023/09/21 08:09:57;;;;;;;4.30;2.90;;;;;;;20.72;100.00;98429.46;110213;1245;59786;-71
2023/09/21 08:12:24;;;;;;;2.70;2.40;;;;;;;20.83;100.00;98426.99;110248;1245;64015;-71
2023/09/21 08:14:51;;;;;;;4.10;2.50;;;;;;;20.93;100.00;98425.79;110201;1246;59751;-71
2023/09/21 08:17:18;;;;;;;3.90;2.70;;;;;;;21.05;100.00;98426.59;110232;1246;59828;-71
2023/09/21 08:19:46;;;;;;;3.50;2.40;;;;;;;21.14;100.00;98423.20;110227;1246;67124;-71
2023/09/21 08:22:13;;;;;;;3.60;2.80;;;;;;;21.19;100.00;98417.86;110233;1246;60196;-71
2023/09/21 08:24:41;;;;;;;5.20;2.50;;;;;;;21.24;100.00;98415.02;109619;1247;62829;-71
2023/09/21 08:27:08;;;;;;;4.20;2.40;;;;;;;21.33;100.00;98411.16;110204;1245;59754;-71
2023/09/21 08:29:35;;;;;;;3.60;2.50;;;;;;;21.44;100.00;98408.72;110250;1246;59802;-71
2023/09/21 08:32:03;;;;;;;3.70;2.90;;;;;;;21.57;100.00;98410.11;110165;1246;65660;-71
2023/09/21 08:34:30;;;;;;;3.90;2.70;;;;;;;21.68;100.00;98408.39;110199;1246;60163;-71
2023/09/21 08:36:57;;;;;;;4.30;2.40;;;;;;;21.82;100.00;98408.08;109615;1247;64164;-71
2023/09/21 08:39:24;;;;;;;2.40;2.10;;;;;;;21.95;100.00;98406.23;110206;1246;59893;-71
2023/09/21 08:41:51;;;;;;;3.80;2.20;;;;;;;22.05;100.00;98400.75;110195;1247;59631;-71
2023/09/21 08:44:18;;;;;;;2.60;2.30;;;;;;;22.14;100.00;98396.17;110216;1247;65286;-71
2023/09/21 08:46:48;;;;;;;2.90;2.30;;;;;;;22.24;100.00;98394.39;109708;1246;59864;-68
2023/09/21 08:49:15;;;;;;;3.90;2.40;;;;;;;22.32;100.00;98394.48;110186;1246;63844;-69
2023/09/21 08:51:45;;;;;;;3.70;2.80;;;;;;;22.39;100.00;98392.39;110238;1245;59919;-69
2023/09/21 08:54:13;;;;;;;6.70;2.90;;;;;;;22.44;100.00;98389.44;110225;1246;59647;-69
2023/09/21 08:56:43;;;;;;;4.90;2.80;;;;;;;22.55;100.00;98392.11;109741;1246;65287;-69
2023/09/21 08:59:09;;;;;;;3.30;2.40;;;;;;;22.64;100.00;98392.26;110248;1246;60116;-69
2023/09/21 09:01:37;;;;;;;6.10;2.90;;;;;;;22.72;100.00;98392.27;110206;1246;62833;-68
2023/09/21 09:04:04;;;;;;;4.70;2.50;;;;;;;22.78;100.00;98388.59;109654;1246;59936;-68
2023/09/21 09:06:31;;;;;;;4.40;2.90;;;;;;;22.85;100.00;98387.71;110266;1246;59814;-68
2023/09/21 09:08:57;;;;;;;3.20;2.20;;;;;;;22.91;100.00;98388.31;110253;1246;60685;-68
2023/09/21 09:11:34;;;;;;;5.50;2.80;;;;;;;22.97;100.00;98386.75;110225;1245;60112;-68
2023/09/21 09:14:02;;;;;;;5.30;2.40;;;;;;;23.08;100.00;98386.52;110232;1246;64054;-68
2023/09/21 09:16:30;;;;;;;3.40;2.50;;;;;;;23.22;100.00;98384.70;110236;1246;59730;-68
2023/09/21 09:18:58;;;;;;;5.60;2.80;;;;;;;23.34;100.00;98384.52;110257;1246;59997;-68
2023/09/21 09:21:25;;;;;;;2.80;2.40;;;;;;;23.46;100.00;98383.34;110272;1246;67261;-69
2023/09/21 09:23:51;;;;;;;4.60;2.70;;;;;;;23.56;100.00;98381.09;110218;1246;60799;-69
2023/09/21 09:26:19;;;;;;;4.50;2.80;;;;;;;23.68;100.00;98383.00;110272;1246;59851;-69
2023/09/21 09:28:47;;;;;;;3.10;2.80;;;;;;;23.78;100.00;98379.14;110229;1247;59827;-69
2023/09/21 09:31:14;;;;;;;4.20;2.70;;;;;;;23.87;100.00;98379.42;110231;1246;59762;-69
2023/09/21 09:33:42;;;;;;;3.80;2.50;;;;;;;23.98;100.00;98380.77;110248;1247;66872;-69
2023/09/21 09:36:09;;;;;;;4.50;2.50;;;;;;;24.07;100.00;98375.70;110242;1246;60290;-69
2023/09/21 09:38:35;;;;;;;4.20;2.60;;;;;;;24.15;100.00;98375.34;109777;1246;62818;-69
2023/09/21 09:41:06;;;;;;;4.00;2.60;;;;;;;24.22;100.00;98372.80;110273;1246;60138;-69
2023/09/21 09:43:37;;;;;;;3.20;2.30;;;;;;;24.29;100.00;98372.15;110262;1246;59805;-69
2023/09/21 09:46:08;;;;;;;4.30;2.50;;;;;;;24.40;100.00;98374.85;110206;1246;66820;-69
2023/09/21 09:48:36;;;;;;;3.50;2.90;;;;;;;24.49;100.00;98370.20;110260;1247;60926;-69
2023/09/21 09:51:08;;;;;;;4.10;2.80;;;;;;;24.60;100.00;98361.38;110234;1247;64094;-69
2023/09/21 09:53:38;;;;;;;3.70;2.50;;;;;;;24.67;100.00;98358.16;110180;1247;59731;-69
2023/09/21 09:56:09;;;;;;;5.00;3.00;;;;;;;24.72;100.00;98358.91;110284;1246;59875;-69
2023/09/21 09:58:43;;;;;;;4.20;3.10;;;;;;;24.78;100.00;98360.30;110259;1245;66922;-69
2023/09/21 10:01:11;;;;;;;7.80;4.10;;;;;;;24.86;100.00;98357.27;110270;1246;59871;-69
2023/09/21 10:03:38;;;;;;;7.00;3.40;;;;;;;24.96;100.00;98349.55;110234;1246;64066;-69
2023/09/21 10:06:08;;;;;;;5.00;2.90;;;;;;;25.02;100.00;98343.59;110256;1245;59745;-69
2023/09/21 10:08:38;;;;;;;;;;;;;;;25.10;100.00;98341.58;109816;1246;59974;-69
2023/09/21 10:11:07;;;;;;;5.10;2.20;;;;;;;25.21;100.00;98340.35;110269;1246;66810;-68
2023/09/21 10:13:48;;;;;;;5.10;2.00;;;;;;;25.29;100.00;98339.97;110273;1246;60002;-68
2023/09/21 10:16:17;;;;;;;3.30;2.30;;;;;;;25.41;100.00;98334.65;110220;1246;62860;-68
2023/09/21 10:18:43;;;;;;;3.40;2.00;;;;;;;25.51;100.00;98335.38;110233;1247;59743;-69
2023/09/21 10:21:12;;;;;;;2.80;1.50;;;;;;;25.60;100.00;98338.50;110258;1246;59786;-68
2023/09/21 10:23:59;;;;;;;4.30;1.80;;;;;;;25.69;100.00;98335.73;110260;1247;65621;-69
2023/09/21 10:26:26;;;;;;;2.20;1.50;;;;;;;25.79;100.00;98332.21;110284;1246;59988;-69
2023/09/21 10:28:54;;;;;;;4.00;1.60;;;;;;;25.88;100.00;98329.84;110249;1246;62791;-69
2023/09/21 10:31:27;;;;;;;5.00;1.70;;;;;;;25.96;100.00;98324.52;110201;1247;59753;-68
2023/09/21 10:33:56;;;;;;;3.90;2.20;;;;;;;26.05;100.00;98321.19;110247;1245;60144;-68
2023/09/21 10:36:23;;;;;;;;;;;;;;;26.13;100.00;98315.05;110265;1246;66884;-68
2023/09/21 10:39:05;;;;;;;2.70;2.10;;;;;;;26.18;100.00;98311.40;110312;1246;60380;-69
2023/09/21 10:41:33;;;;;;;3.70;2.60;;;;;;;26.28;100.00;98303.77;110238;1246;63793;-68
2023/09/21 10:44:02;;;;;;;13.10;4.70;;;;;;;26.34;100.00;98300.00;110259;1246;59860;-69
2023/09/21 10:46:37;;;;;;;14.50;4.90;;;;;;;26.42;100.00;98299.93;109808;1246;60036;-68
2023/09/21 10:49:03;;;;;;;3.50;2.10;;;;;;;26.48;100.00;98297.08;110221;1247;66775;-68
2023/09/21 10:51:31;;;;;;;4.90;2.00;;;;;;;26.55;100.00;98295.19;110267;1246;59900;-69
2023/09/21 10:53:59;;;;;;;1.50;1.40;;;;;;;26.62;100.00;98290.75;110242;1247;64034;-68
2023/09/21 10:56:29;;;;;;;2.00;1.80;;;;;;;26.67;100.00;98286.42;110211;1246;59761;-68
2023/09/21 10:58:55;;;;;;;2.80;1.60;;;;;;;26.74;100.00;98287.49;110262;1246;59770;-69
2023/09/21 11:01:23;;;;;;;3.50;1.60;;;;;;;26.79;100.00;98285.36;110227;1246;66626;-69
2023/09/21 11:03:49;;;;;;;3.00;1.40;;;;;;;26.82;100.00;98284.95;110260;1247;60803;-68
2023/09/21 11:06:16;;;;;;;2.60;1.90;;;;;;;26.86;100.00;98280.29;110259;1245;62846;-68
2023/09/21 11:08:49;;;;;;;3.50;2.30;;;;;;;26.91;100.00;98279.52;110259;1246;59815;-69
2023/09/21 11:11:17;;;;;;;3.30;2.30;;;;;;;26.97;100.00;98276.56;110244;1245;59718;-69
2023/09/21 11:13:43;;;;;;;2.30;2.10;;;;;;;27.03;100.00;98268.02;110225;1245;65641;-69
2023/09/21 11:16:13;;;;;;;4.90;2.50;;;;;;;27.10;100.00;98265.67;110301;1246;59838;-68
2023/09/21 11:18:42;;;;;;;4.40;2.90;;;;;;;27.11;100.00;98264.84;109719;1246;64069;-69
2023/09/21 11:21:09;;;;;;;2.80;2.50;;;;;;;27.03;100.00;98256.30;110232;1246;59835;-69
2023/09/21 11:23:42;;;;;;;2.70;2.50;;;;;;;27.07;100.00;98255.67;110243;1246;60643;-68